Time;durP1;ratioP1;P1;durP2;ratioP2;P2;SDS_P1;SDS_P2;PMS_P1;PMS_P2;Temp;Humidity;BMP_temperature;BMP_pressure;BME280_temperature;BME280_humidity;BME280_pressure;Samples;Min_cycle;Max_cycle;Signal;HPM_P1;HPM_P2
2023/06/09 00:00:36;;;;;;;2.83;2.58;;;;;;;16.54;100.00;94590.34;5067909;28;20033;-81
2023/06/09 00:03:04;;;;;;;3.63;3.05;;;;;;;16.32;100.00;94597.81;5064159;28;20020;-84
2023/06/09 00:05:32;;;;;;;4.20;2.85;;;;;;;16.38;100.00;94593.53;5064805;28;20024;-81
2023/06/09 00:07:59;;;;;;;2.78;2.58;;;;;;;16.33;100.00;94586.34;5081684;28;20028;-78
2023/06/09 00:10:25;;;;;;;4.55;2.67;;;;;;;16.35;100.00;94586.91;5080695;28;20160;-80
2023/06/09 00:12:50;;;;;;;5.97;2.92;;;;;;;16.31;100.00;94582.34;5081706;28;20695;-79
2023/06/09 00:15:16;;;;;;;5.70;2.75;;;;;;;16.18;100.00;94583.25;5080614;28;20035;-79
2023/06/09 00:17:42;;;;;;;4.00;2.60;;;;;;;16.14;100.00;94582.09;5063927;28;20067;-77
2023/06/09 00:20:09;;;;;;;3.53;3.22;;;;;;;16.05;100.00;94588.59;5080977;28;20417;-79
2023/06/09 00:22:42;;;;;;;3.60;3.00;;;;;;;16.11;100.00;94590.34;5064128;28;20035;-78
2023/06/09 00:25:12;;;;;;;2.92;2.72;;;;;;;15.99;100.00;94592.03;5065270;28;20127;-79
2023/06/09 00:27:43;;;;;;;2.92;2.65;;;;;;;16.22;100.00;94592.25;5063398;28;20081;-80
2023/06/09 00:30:10;;;;;;;3.20;3.00;;;;;;;16.09;100.00;94594.16;5064921;28;20028;-78
2023/06/09 00:32:35;;;;;;;3.10;2.72;;;;;;;15.85;100.00;94594.97;5080084;28;20047;-80
2023/06/09 00:35:02;;;;;;;4.78;3.47;;;;;;;15.73;100.00;94600.84;5063876;28;20114;-78
2023/06/09 00:37:27;;;;;;;3.35;2.90;;;;;;;15.77;100.00;94604.66;5063793;28;20516;-79
2023/06/09 00:39:53;;;;;;;3.78;2.70;;;;;;;15.73;100.00;94610.53;5080389;28;20028;-78
2023/06/09 00:42:18;;;;;;;3.63;2.90;;;;;;;15.63;100.00;94607.56;5063639;28;20566;-79
2023/06/09 00:44:44;;;;;;;4.07;3.67;;;;;;;15.42;100.00;94610.44;5079979;28;20036;-79
2023/06/09 00:47:10;;;;;;;4.72;3.05;;;;;;;15.44;100.00;94618.88;5080761;28;20473;-80
2023/06/09 00:49:35;;;;;;;3.50;3.20;;;;;;;15.40;100.00;94625.53;5081376;28;20059;-80
2023/06/09 00:52:01;;;;;;;4.07;3.13;;;;;;;15.48;100.00;94633.13;5080526;28;20036;-81
2023/06/09 00:54:28;;;;;;;5.05;3.17;;;;;;;15.31;100.00;94625.75;5062898;28;20039;-79
2023/06/09 00:56:55;;;;;;;3.70;3.40;;;;;;;15.11;100.00;94630.28;5063567;28;20564;-80
2023/06/09 00:59:21;;;;;;;4.43;2.90;;;;;;;15.35;100.00;94622.75;5077361;28;20028;-83
2023/06/09 01:01:46;;;;;;;3.40;3.10;;;;;;;15.28;100.00;94620.16;5068786;28;20395;-79
2023/06/09 01:04:15;;;;;;;3.30;3.00;;;;;;;15.18;100.00;94620.63;5080608;28;20144;-81
2023/06/09 01:06:47;;;;;;;3.85;3.20;;;;;;;15.34;100.00;94618.53;5063014;28;20020;-77
2023/06/09 01:09:15;;;;;;;4.53;3.28;;;;;;;15.13;100.00;94617.81;5082055;28;20097;-78
2023/06/09 01:11:59;;;;;;;3.55;3.25;;;;;;;14.94;100.00;94626.50;5079731;28;20030;-80
2023/06/09 01:14:32;;;;;;;3.53;3.22;;;;;;;14.78;100.00;94625.16;5080870;28;20486;-80
2023/06/09 01:17:07;;;;;;;4.65;3.85;;;;;;;14.82;100.00;94629.94;5077809;28;20028;-79
2023/06/09 01:19:40;;;;;;;5.10;3.20;;;;;;;14.74;100.00;94641.38;5079258;28;20055;-79
2023/06/09 01:22:21;;;;;;;3.75;3.05;;;;;;;14.71;100.00;94632.16;5080560;28;20105;-80
2023/06/09 01:24:57;;;;;;;3.58;3.20;;;;;;;14.81;100.00;94633.56;5079371;28;20116;-81
2023/06/09 01:27:24;;;;;;;3.65;3.15;;;;;;;14.79;100.00;94625.94;5080931;28;20028;-78
2023/06/09 01:29:51;;;;;;;4.38;3.53;;;;;;;14.65;100.00;94632.19;5079086;28;20031;-82
2023/06/09 01:32:17;;;;;;;4.05;3.70;;;;;;;14.66;100.00;94641.63;5061957;28;20062;-81
2023/06/09 01:34:43;;;;;;;4.35;3.70;;;;;;;14.67;100.00;94643.22;5080054;28;20032;-84
2023/06/09 01:37:09;;;;;;;4.63;3.22;;;;;;;14.59;100.00;94646.03;5062405;28;20389;-78
2023/06/09 01:39:34;;;;;;;4.05;3.17;;;;;;;14.65;100.00;94638.19;5063101;28;20043;-84
2023/06/09 01:42:00;;;;;;;4.07;3.53;;;;;;;14.64;100.00;94648.84;5079450;28;20233;-83
2023/06/09 01:44:25;;;;;;;3.97;3.65;;;;;;;14.66;100.00;94659.84;5062704;28;20429;-83
2023/06/09 01:46:51;;;;;;;6.20;3.85;;;;;;;14.74;100.00;94659.63;5079534;28;20036;-83
2023/06/09 01:49:32;;;;;;;4.38;3.25;;;;;;;14.78;100.00;94661.66;5080391;28;20023;-83
2023/06/09 01:52:05;;;;;;;3.67;3.38;;;;;;;14.61;100.00;94670.88;5079869;28;20024;-83
2023/06/09 01:54:53;;;;;;;4.10;3.65;;;;;;;14.65;100.00;94669.47;5078567;28;20044;-82
2023/06/09 01:57:21;;;;;;;5.40;3.33;;;;;;;14.61;100.00;94662.25;5079705;28;20024;-82
2023/06/09 02:00:07;;;;;;;3.80;3.45;;;;;;;14.49;100.00;94669.09;5074209;28;20015;-83
2023/06/09 02:02:34;;;;;;;4.10;3.70;;;;;;;14.44;100.00;94671.50;5071196;28;20064;-83
2023/06/09 02:05:02;;;;;;;4.05;3.50;;;;;;;14.32;100.00;94678.31;5079560;28;20114;-82
2023/06/09 02:07:28;;;;;;;3.58;3.28;;;;;;;14.19;100.00;94679.88;5078443;28;20035;-83
2023/06/09 02:09:54;;;;;;;5.82;3.53;;;;;;;14.11;100.00;94685.28;5062760;28;20024;-82
2023/06/09 02:12:19;;;;;;;3.85;3.50;;;;;;;13.98;100.00;94695.69;5061635;28;20432;-83
2023/06/09 02:14:45;;;;;;;3.80;3.47;;;;;;;14.06;100.00;94702.53;5079417;28;20058;-80
2023/06/09 02:17:10;;;;;;;3.85;3.55;;;;;;;13.74;100.00;94711.88;5062461;28;20028;-81
2023/06/09 02:19:38;;;;;;;3.80;3.50;;;;;;;13.75;100.00;94734.28;5061511;28;20044;-80
2023/06/09 02:22:05;;;;;;;3.75;3.45;;;;;;;13.73;100.00;94739.69;5063012;28;20120;-80
2023/06/09 02:24:30;;;;;;;4.43;3.63;;;;;;;13.67;100.00;94739.66;5078059;28;20036;-79
2023/06/09 02:26:56;;;;;;;4.78;3.85;;;;;;;13.72;100.00;94734.66;5079607;28;20414;-80
2023/06/09 02:29:25;;;;;;;6.93;4.00;;;;;;;13.64;100.00;94743.47;5061330;28;20515;-82
2023/06/09 02:31:52;;;;;;;7.20;4.32;;;;;;;13.68;100.00;94754.25;5079497;28;20115;-85
2023/06/09 02:34:19;;;;;;;5.38;4.00;;;;;;;13.73;100.00;94744.09;5062241;28;20521;-83
2023/06/09 02:36:45;;;;;;;5.13;3.75;;;;;;;13.65;100.00;94746.84;5061835;28;20020;-82
2023/06/09 02:39:11;;;;;;;4.13;3.70;;;;;;;13.68;100.00;94749.84;5079445;28;20021;-83
2023/06/09 02:54:30;;;;;;;6.63;3.90;;;;;;;13.44;100.00;94759.97;5092278;27;20933;-80
2023/06/09 02:56:56;;;;;;;4.20;3.85;;;;;;;13.55;100.00;94756.84;5075065;28;20033;-80
2023/06/09 02:59:21;;;;;;;4.80;3.80;;;;;;;13.72;100.00;94756.28;5077503;28;20020;-81
2023/06/09 03:01:46;;;;;;;5.15;3.70;;;;;;;13.75;100.00;94736.88;5077076;28;20035;-80
2023/06/09 03:04:12;;;;;;;5.85;4.10;;;;;;;13.75;100.00;94742.06;5075733;28;20024;-80
2023/06/09 03:06:39;;;;;;;4.22;3.65;;;;;;;13.76;100.00;94748.09;5076973;28;20122;-81
2023/06/09 03:09:05;;;;;;;4.28;3.88;;;;;;;13.76;100.00;94751.50;5075809;28;20075;-80
2023/06/09 03:11:30;;;;;;;5.55;4.30;;;;;;;13.77;100.00;94755.72;5056895;28;20033;-80
2023/06/09 03:13:56;;;;;;;4.40;4.10;;;;;;;13.76;100.00;94774.94;5058731;28;20016;-81
2023/06/09 03:16:21;;;;;;;4.15;3.85;;;;;;;13.90;100.00;94771.34;5076438;28;20571;-82
2023/06/09 03:18:47;;;;;;;4.97;4.13;;;;;;;13.92;100.00;94758.97;5059649;28;20024;-84
2023/06/09 03:21:13;;;;;;;4.70;4.30;;;;;;;13.88;100.00;94760.34;5075630;28;20024;-83
2023/06/09 03:23:40;;;;;;;8.88;4.90;;;;;;;13.97;100.00;94748.75;5076556;28;20031;-81
2023/06/09 03:26:06;;;;;;;6.88;5.40;;;;;;;13.94;100.00;94733.53;5075441;28;20035;-81
2023/06/09 03:28:32;;;;;;;6.40;5.80;;;;;;;14.43;100.00;94711.59;5059833;28;20031;-82
2023/06/09 03:30:58;;;;;;;6.57;6.07;;;;;;;15.49;100.00;94672.09;5054800;28;20029;-79
2023/06/09 03:33:25;;;;;;;3.95;3.55;;;;;;;15.72;100.00;94635.03;5076310;28;20043;-80
2023/06/09 03:35:50;;;;;;;4.05;3.75;;;;;;;16.58;100.00;94622.94;5075859;28;20466;-79
2023/06/09 03:38:16;;;;;;;5.13;3.15;;;;;;;17.13;100.00;94604.66;5075229;28;20058;-78
2023/06/09 03:40:41;;;;;;;3.38;3.10;;;;;;;17.55;100.00;94589.81;5076405;28;20035;-79
2023/06/09 03:43:07;;;;;;;3.13;2.83;;;;;;;17.40;100.00;94593.63;5074382;28;20043;-79
2023/06/09 03:45:34;;;;;;;4.78;3.95;;;;;;;18.10;100.00;94580.78;5076377;28;20112;-79
2023/06/09 03:48:00;;;;;;;4.15;2.75;;;;;;;18.35;100.00;94573.50;5074739;28;20793;-79
2023/06/09 03:50:26;;;;;;;2.72;2.50;;;;;;;18.54;100.00;94576.03;5074624;28;20074;-79
2023/06/09 03:52:52;;;;;;;2.92;2.72;;;;;;;18.95;100.00;94579.28;5063628;28;20036;-79
2023/06/09 03:55:22;;;;;;;11.57;3.28;;;;;;;19.44;99.92;94569.25;5062715;28;20043;-81
2023/06/09 03:57:47;;;;;;;3.53;2.47;;;;;;;19.15;97.35;94567.59;5061881;28;20825;-81
2023/06/09 04:00:15;;;;;;;5.22;3.45;;;;;;;19.52;97.57;94563.63;5060814;28;20012;-82
2023/06/09 04:02:40;;;;;;;2.58;2.28;;;;;;;19.89;96.08;94570.06;5045798;28;20580;-83
2023/06/09 04:05:06;;;;;;;2.50;2.30;;;;;;;19.78;95.38;94573.53;5060763;28;20099;-77
2023/06/09 04:07:32;;;;;;;2.60;2.28;;;;;;;20.77;91.29;94581.69;5063815;28;20390;-79
2023/06/09 04:09:57;;;;;;;3.05;2.30;;;;;;;21.13;87.87;94567.19;5062166;28;20029;-79
2023/06/09 04:12:23;;;;;;;5.10;2.28;;;;;;;21.00;87.79;94574.34;5063742;28;20032;-79
2023/06/09 04:14:48;;;;;;;3.97;2.00;;;;;;;21.74;77.91;94571.25;5062925;28;20508;-80
2023/06/09 04:17:14;;;;;;;2.45;2.25;;;;;;;21.93;78.70;94567.28;5063022;28;20407;-78
2023/06/09 04:19:40;;;;;;;8.80;2.65;;;;;;;21.81;79.33;94574.50;5063573;28;20031;-79
2023/06/09 04:22:07;;;;;;;2.83;2.50;;;;;;;22.79;79.05;94567.94;5043853;28;20409;-78
2023/06/09 04:24:33;;;;;;;2.42;2.33;;;;;;;22.67;73.96;94576.03;5062149;28;20020;-78
2023/06/09 04:27:01;;;;;;;3.45;2.03;;;;;;;22.79;73.90;94568.75;5060524;28;20052;-77
2023/06/09 04:29:26;;;;;;;4.43;2.47;;;;;;;22.23;75.03;94577.28;5063475;28;20060;-79
2023/06/09 04:31:58;;;;;;;3.50;2.35;;;;;;;22.85;70.95;94566.91;5062107;28;20372;-78
2023/06/09 04:34:27;;;;;;;3.72;2.30;;;;;;;23.46;67.66;94571.44;5062793;28;21003;-80
2023/06/09 04:36:53;;;;;;;3.13;2.03;;;;;;;22.98;64.40;94561.97;5044999;28;20037;-80
2023/06/09 04:39:25;;;;;;;2.60;2.13;;;;;;;24.15;61.05;94565.75;5043518;28;20035;-80
2023/06/09 04:41:53;;;;;;;2.47;2.08;;;;;;;25.02;57.95;94576.03;5061550;28;20386;-80
2023/06/09 04:44:20;;;;;;;2.30;2.10;;;;;;;24.77;61.76;94576.06;5061862;28;20071;-81
2023/06/09 04:46:46;;;;;;;2.03;1.90;;;;;;;24.78;58.98;94566.25;5061942;28;20039;-80
2023/06/09 04:49:12;;;;;;;2.40;2.20;;;;;;;25.71;58.35;94577.91;5060843;28;20305;-79
2023/06/09 04:51:41;;;;;;;2.00;1.90;;;;;;;25.54;59.61;94577.47;5061232;28;20525;-79
2023/06/09 04:54:09;;;;;;;3.22;2.10;;;;;;;25.64;56.31;94577.41;5061572;28;20517;-80
2023/06/09 04:56:36;;;;;;;2.17;2.00;;;;;;;25.65;56.51;94574.47;5043106;28;20517;-82
2023/06/09 04:59:02;;;;;;;3.13;1.90;;;;;;;26.13;55.55;94569.41;5057362;28;20058;-79
2023/06/09 05:01:28;;;;;;;5.03;2.30;;;;;;;26.42;55.37;94566.81;5061020;28;20556;-79
2023/06/09 05:03:53;;;;;;;3.20;2.20;;;;;;;26.90;53.08;94567.72;5041163;28;20025;-82
2023/06/09 05:06:19;;;;;;;3.90;1.92;;;;;;;27.34;52.13;94562.97;5033776;28;20409;-78
2023/06/09 05:08:44;;;;;;;2.10;1.90;;;;;;;27.94;49.40;94568.59;5062134;28;20119;-78
2023/06/09 05:11:10;;;;;;;2.50;2.30;;;;;;;28.37;48.90;94563.97;5062214;28;20051;-79
2023/06/09 05:13:35;;;;;;;2.75;1.90;;;;;;;28.84;47.49;94566.41;5060117;28;20020;-79
2023/06/09 05:16:00;;;;;;;2.17;1.73;;;;;;;28.55;47.63;94565.81;5061138;28;20397;-82
2023/06/09 05:18:26;;;;;;;1.88;1.73;;;;;;;29.32;47.59;94568.72;5059626;28;20043;-79
2023/06/09 05:20:51;;;;;;;2.10;1.83;;;;;;;29.86;45.82;94563.38;5062136;28;20037;-83
2023/06/09 05:23:17;;;;;;;2.10;1.77;;;;;;;29.36;46.04;94559.84;5059533;28;20048;-80
2023/06/09 05:25:43;;;;;;;1.90;1.80;;;;;;;29.33;45.89;94563.09;5061283;28;20024;-80
2023/06/09 05:28:08;;;;;;;1.95;1.85;;;;;;;28.00;48.73;94570.13;5061258;28;20028;-79
2023/06/09 05:30:34;;;;;;;3.25;1.90;;;;;;;27.73;49.58;94565.44;5060488;28;20153;-78
2023/06/09 05:33:00;;;;;;;1.90;1.77;;;;;;;27.59;47.69;94552.03;5061645;28;20256;-78
2023/06/09 05:35:25;;;;;;;3.70;1.95;;;;;;;31.41;42.91;94556.31;5060867;28;20126;-78
2023/06/09 05:37:51;;;;;;;2.78;2.10;;;;;;;31.80;40.57;94557.06;5060354;28;20028;-79
2023/06/09 05:40:17;;;;;;;4.40;1.90;;;;;;;32.29;40.38;94553.19;5041393;28;20043;-79
2023/06/09 05:42:42;;;;;;;3.88;2.00;;;;;;;33.36;37.58;94547.75;5061767;28;20024;-78
2023/06/09 05:45:08;;;;;;;1.80;1.70;;;;;;;31.91;37.99;94548.72;5060764;28;20031;-78
2023/06/09 05:47:33;;;;;;;2.00;1.85;;;;;;;33.36;36.79;94553.88;5062147;28;20033;-79
2023/06/09 05:49:59;;;;;;;2.13;1.67;;;;;;;33.73;36.61;94552.28;5059677;28;20448;-78
2023/06/09 05:52:24;;;;;;;1.80;1.70;;;;;;;33.69;36.42;94545.97;5060752;28;20132;-80
2023/06/09 05:54:50;;;;;;;1.67;1.43;;;;;;;33.75;35.46;94555.44;5061922;28;20417;-78
2023/06/09 05:57:16;;;;;;;2.13;1.50;;;;;;;34.13;35.84;94551.88;5059897;28;20405;-78
2023/06/09 05:59:42;;;;;;;3.20;1.60;;;;;;;34.50;36.27;94556.31;5061684;28;20121;-78
2023/06/09 06:02:08;;;;;;;2.03;1.80;;;;;;;34.22;35.72;94552.59;5041948;28;20032;-82
2023/06/09 06:04:33;;;;;;;3.20;2.10;;;;;;;33.66;35.27;94565.44;5059669;28;20032;-80
2023/06/09 06:06:59;;;;;;;4.87;1.97;;;;;;;35.12;34.94;94553.50;5042781;28;20028;-85
2023/06/09 06:09:24;;;;;;;4.73;2.00;;;;;;;34.49;35.22;94562.78;5055824;28;20035;-83
2023/06/09 06:11:50;;;;;;;2.40;1.73;;;;;;;35.13;33.91;94548.91;5059943;28;20059;-84
2023/06/09 06:14:15;;;;;;;2.50;2.23;;;;;;;34.60;35.12;94558.63;5059275;28;20060;-81
2023/06/09 06:16:41;;;;;;;4.13;1.92;;;;;;;34.92;35.03;94548.94;5058818;28;20085;-80
2023/06/09 06:19:06;;;;;;;2.42;2.22;;;;;;;36.05;33.40;94555.28;5058284;28;20401;-81
2023/06/09 06:21:32;;;;;;;3.17;1.80;;;;;;;35.53;33.21;94554.41;5060037;28;20035;-80
2023/06/09 06:23:57;;;;;;;2.25;2.03;;;;;;;34.97;35.00;94553.34;5058557;28;20024;-81
2023/06/09 06:26:23;;;;;;;2.65;2.03;;;;;;;33.00;36.94;94550.06;5057890;28;20064;-80
2023/06/09 06:28:48;;;;;;;2.85;2.38;;;;;;;30.03;41.79;94552.03;5059104;28;20051;-80
2023/06/09 06:31:16;;;;;;;5.80;2.00;;;;;;;29.85;45.18;94544.97;5059086;28;20032;-81
2023/06/09 06:33:42;;;;;;;2.63;2.00;;;;;;;28.79;45.83;94531.84;5059753;28;20040;-80
2023/06/09 06:36:08;;;;;;;2.75;2.20;;;;;;;29.54;44.97;94537.56;5056566;28;20031;-79
2023/06/09 06:38:34;;;;;;;2.65;2.15;;;;;;;29.57;44.32;94536.19;5041722;28;20028;-80
2023/06/09 06:40:59;;;;;;;3.88;2.40;;;;;;;31.93;40.55;94539.25;5039810;28;20148;-82
2023/06/09 06:43:25;;;;;;;2.30;2.10;;;;;;;34.24;37.02;94540.38;5058070;28;20021;-82
2023/06/09 06:45:50;;;;;;;2.72;2.20;;;;;;;35.55;34.73;94541.34;5056943;28;20020;-85
2023/06/09 06:48:16;;;;;;;7.53;2.17;;;;;;;33.88;36.10;94542.84;5058288;28;20705;-81
2023/06/09 06:50:41;;;;;;;2.60;2.22;;;;;;;30.34;41.08;94532.28;5041148;28;20040;-82
2023/06/09 06:53:08;;;;;;;3.55;2.38;;;;;;;29.87;42.44;94532.09;5056441;28;20185;-81
2023/06/09 06:55:35;;;;;;;3.47;2.20;;;;;;;29.18;45.77;94526.81;5058350;28;20165;-83
2023/06/09 06:58:01;;;;;;;2.50;2.30;;;;;;;29.24;45.37;94536.34;5039878;28;20024;-81
2023/06/09 07:00:27;;;;;;;3.58;2.28;;;;;;;29.01;47.11;94533.81;5058071;28;20020;-80
2023/06/09 07:02:53;;;;;;;2.20;2.00;;;;;;;29.44;46.29;94531.66;5040272;28;20090;-86
2023/06/09 07:05:19;;;;;;;3.05;2.20;;;;;;;29.29;45.90;94528.22;5041825;28;20042;-86
2023/06/09 07:07:45;;;;;;;3.20;1.95;;;;;;;32.84;39.91;94526.44;5040855;28;20425;-87
2023/06/09 07:10:11;;;;;;;3.95;2.40;;;;;;;31.49;40.69;94523.41;5056962;28;20369;-81
2023/06/09 07:12:36;;;;;;;6.78;2.63;;;;;;;27.77;47.18;94528.38;5059734;28;20020;-88
2023/06/09 07:15:03;;;;;;;3.15;2.42;;;;;;;27.60;49.70;94524.34;5056419;28;20079;-84
2023/06/09 07:17:28;;;;;;;5.82;2.25;;;;;;;28.39;49.78;94525.28;5057745;28;20545;-83
2023/06/09 07:19:54;;;;;;;2.55;2.20;;;;;;;27.62;50.99;94516.84;5055995;28;20040;-81
2023/06/09 07:22:20;;;;;;;4.88;2.33;;;;;;;27.85;52.03;94517.06;5057939;28;20033;-81
2023/06/09 07:24:46;;;;;;;3.20;2.38;;;;;;;28.11;52.23;94519.09;5039881;28;20036;-89
2023/06/09 07:27:11;;;;;;;3.63;2.17;;;;;;;27.97;50.79;94520.88;5040850;28;20048;-82
2023/06/09 07:29:37;;;;;;;4.28;2.60;;;;;;;27.75;50.95;94520.66;5058780;28;20146;-82
2023/06/09 07:32:03;;;;;;;4.15;2.40;;;;;;;27.00;51.59;94525.84;5043504;28;20017;-82
2023/06/09 07:34:31;;;;;;;4.40;2.80;;;;;;;27.81;54.40;94526.69;5044513;28;20028;-82
2023/06/09 07:36:59;;;;;;;3.83;3.42;;;;;;;27.24;53.34;94523.97;5059931;28;20028;-84
2023/06/09 07:39:25;;;;;;;2.45;2.25;;;;;;;27.83;52.90;94524.56;5061359;28;20036;-82
2023/06/09 07:41:50;;;;;;;3.05;2.63;;;;;;;28.02;51.59;94531.47;5059743;28;20036;-88
2023/06/09 07:44:16;;;;;;;2.70;2.42;;;;;;;27.76;50.41;94519.59;5044739;28;20414;-82
2023/06/09 07:46:41;;;;;;;2.88;2.50;;;;;;;28.02;52.57;94530.66;5060735;28;20040;-83
2023/06/09 07:49:07;;;;;;;4.28;2.53;;;;;;;27.30;52.18;94524.72;5062338;28;20024;-83
2023/06/09 07:51:36;;;;;;;4.75;2.72;;;;;;;27.58;49.84;94525.72;5044691;28;20025;-83
2023/06/09 07:54:04;;;;;;;2.70;2.50;;;;;;;27.28;49.90;94529.53;5059166;28;20525;-84
2023/06/09 07:56:29;;;;;;;4.22;2.55;;;;;;;27.35;51.63;94529.19;5060817;28;20486;-83
2023/06/09 07:58:55;;;;;;;2.55;2.35;;;;;;;27.92;52.51;94525.50;5042840;28;20032;-87
2023/06/09 08:01:20;;;;;;;3.45;2.53;;;;;;;27.67;50.79;94524.00;5061349;28;20036;-85
2023/06/09 08:03:46;;;;;;;4.72;2.53;;;;;;;27.51;51.33;94520.75;5061219;28;20537;-86
2023/06/09 08:06:11;;;;;;;3.25;2.50;;;;;;;28.03;53.06;94521.59;5061829;28;20081;-86
2023/06/09 08:08:37;;;;;;;3.90;2.60;;;;;;;27.96;50.84;94521.97;5062319;28;20021;-84
2023/06/09 08:11:02;;;;;;;5.05;3.10;;;;;;;27.49;51.90;94511.44;5059844;28;20462;-82
2023/06/09 08:13:28;;;;;;;4.00;3.00;;;;;;;27.48;52.32;94510.69;5060759;28;20398;-81
2023/06/09 08:15:53;;;;;;;2.80;2.60;;;;;;;27.44;52.32;94520.31;5059417;28;20032;-86
2023/06/09 08:18:19;;;;;;;3.30;3.00;;;;;;;27.49;53.54;94512.25;5044368;28;20442;-83
2023/06/09 08:20:45;;;;;;;3.60;3.30;;;;;;;25.31;55.34;94514.41;5042095;28;20032;-80
2023/06/09 08:23:10;;;;;;;3.33;2.90;;;;;;;27.02;52.32;94501.66;5060640;28;20037;-81
2023/06/09 08:25:37;;;;;;;3.25;2.90;;;;;;;27.53;53.65;94505.28;5059662;28;20501;-82
2023/06/09 08:28:02;;;;;;;2.90;2.70;;;;;;;27.48;53.94;94492.06;5059896;28;20025;-86
2023/06/09 08:30:28;;;;;;;3.53;2.88;;;;;;;27.97;53.09;94504.09;5043694;28;20520;-81
2023/06/09 08:32:53;;;;;;;3.13;2.80;;;;;;;27.79;53.89;94499.59;5059175;28;20833;-87
2023/06/09 08:35:21;;;;;;;2.67;2.47;;;;;;;27.83;51.67;94496.06;5062535;28;20117;-87
2023/06/09 08:37:47;;;;;;;2.87;2.67;;;;;;;28.15;52.39;94503.31;5058559;28;20394;-83
2023/06/09 08:40:13;;;;;;;4.93;2.90;;;;;;;28.02;54.84;94493.38;5060326;28;20029;-85
2023/06/09 08:42:39;;;;;;;3.17;2.97;;;;;;;27.93;54.97;94495.13;5058908;28;20048;-86
2023/06/09 08:45:05;;;;;;;4.97;3.00;;;;;;;27.55;55.07;94494.34;5060127;28;20028;-82
2023/06/09 08:47:34;;;;;;;3.25;2.78;;;;;;;26.65;55.03;94495.09;5059781;28;20094;-82
2023/06/09 08:50:02;;;;;;;3.08;2.53;;;;;;;27.62;54.61;94479.59;5058913;28;20025;-80
2023/06/09 08:52:28;;;;;;;3.33;2.50;;;;;;;26.43;55.24;94484.16;5060039;28;20056;-80
2023/06/09 08:54:55;;;;;;;5.28;2.80;;;;;;;27.72;54.82;94486.63;5058271;28;20042;-80
2023/06/09 08:57:21;;;;;;;4.85;2.97;;;;;;;28.16;54.98;94486.22;5059951;28;20497;-82
2023/06/09 08:59:47;;;;;;;3.97;2.72;;;;;;;28.21;53.99;94486.97;5058007;28;20032;-88
2023/06/09 09:02:13;;;;;;;2.90;2.70;;;;;;;28.23;54.36;94484.00;5060397;28;20642;-86
2023/06/09 09:04:38;;;;;;;4.50;3.00;;;;;;;27.64;55.18;94474.00;5042647;28;20031;-83
2023/06/09 09:07:05;;;;;;;2.97;2.50;;;;;;;27.84;53.70;94473.66;5059482;28;20468;-87
2023/06/09 09:09:31;;;;;;;4.72;3.17;;;;;;;26.77;52.30;94473.47;5060681;28;20450;-85
2023/06/09 09:12:01;;;;;;;3.67;3.22;;;;;;;26.37;53.10;94484.50;5041208;28;20090;-78
2023/06/09 09:14:27;;;;;;;3.17;2.95;;;;;;;27.18;54.29;94474.59;5043249;28;20097;-84
2023/06/09 09:16:52;;;;;;;2.92;2.70;;;;;;;26.96;54.52;94461.03;5057778;28;20028;-82
2023/06/09 09:19:26;;;;;;;3.22;3.00;;;;;;;26.39;55.06;94472.53;5043328;28;20481;-81
2023/06/09 09:21:54;;;;;;;3.60;3.30;;;;;;;26.05;54.17;94469.88;5042026;28;20036;-78
2023/06/09 09:24:19;;;;;;;3.37;3.10;;;;;;;26.16;55.94;94466.13;5041925;28;20560;-79
2023/06/09 09:26:45;;;;;;;4.10;2.97;;;;;;;26.38;55.09;94462.97;5042393;28;20094;-81
2023/06/09 09:29:10;;;;;;;3.72;3.40;;;;;;;26.95;54.29;94458.66;5057611;28;20032;-80
2023/06/09 09:31:39;;;;;;;3.38;3.08;;;;;;;27.64;54.80;94447.38;5059337;28;20094;-81
2023/06/09 09:34:10;;;;;;;4.43;3.17;;;;;;;27.81;53.72;94452.94;5041079;28;20032;-88
2023/06/09 09:36:41;;;;;;;4.05;3.00;;;;;;;27.70;55.83;94448.88;5042537;28;20168;-84
2023/06/09 09:39:07;;;;;;;3.75;3.33;;;;;;;27.91;54.97;94444.78;5042088;28;20343;-84
2023/06/09 09:41:32;;;;;;;3.92;2.90;;;;;;;28.01;56.02;94443.84;5058549;28;20024;-84
2023/06/09 09:43:57;;;;;;;3.75;3.30;;;;;;;28.35;54.26;94446.22;5058905;28;20409;-84
2023/06/09 09:46:23;;;;;;;3.22;2.92;;;;;;;28.05;52.12;94450.19;5057929;28;20013;-86
2023/06/09 09:48:49;;;;;;;3.55;2.72;;;;;;;27.62;52.09;94438.88;5058995;28;20527;-83
2023/06/09 09:51:15;;;;;;;3.40;3.10;;;;;;;27.64;52.41;94440.19;5057020;28;20490;-86
2023/06/09 09:53:45;;;;;;;3.97;2.72;;;;;;;27.02;51.07;94441.28;5058447;28;20517;-84
2023/06/09 09:56:11;;;;;;;4.07;3.15;;;;;;;27.65;52.77;94441.75;5058129;28;20025;-87
2023/06/09 09:58:37;;;;;;;5.07;2.90;;;;;;;27.67;54.17;94430.81;5059136;28;20145;-82
2023/06/09 10:01:04;;;;;;;4.38;3.00;;;;;;;27.22;53.10;94434.91;5058483;28;20111;-87
2023/06/09 10:03:30;;;;;;;3.50;3.20;;;;;;;27.61;53.74;94432.75;5057757;28;20055;-86
2023/06/09 10:05:55;;;;;;;2.90;2.70;;;;;;;27.84;53.25;94440.94;5042851;28;20060;-86
2023/06/09 10:08:24;;;;;;;3.00;2.80;;;;;;;27.82;53.55;94427.09;5040644;28;20020;-84
2023/06/09 10:10:51;;;;;;;3.38;3.15;;;;;;;26.73;54.65;94424.59;5058765;28;20064;-87
2023/06/09 10:13:16;;;;;;;5.07;2.72;;;;;;;27.57;54.30;94423.78;5040869;28;20032;-84
2023/06/09 10:15:43;;;;;;;2.92;2.70;;;;;;;27.80;53.32;94426.63;5043064;28;20051;-90
2023/06/09 10:18:10;;;;;;;4.30;3.13;;;;;;;27.62;53.03;94425.56;5058971;28;20043;-90
2023/06/09 10:20:36;;;;;;;4.10;2.83;;;;;;;27.73;54.03;94427.00;5041941;28;20133;-89
2023/06/09 10:23:03;;;;;;;4.20;2.60;;;;;;;27.50;50.38;94423.34;5042272;28;20678;-84
2023/06/09 10:25:29;;;;;;;3.55;3.03;;;;;;;27.72;52.29;94420.88;5040425;28;20115;-85
2023/06/09 10:27:55;;;;;;;3.20;2.95;;;;;;;27.48;49.24;94430.03;5041465;28;20028;-82
2023/06/09 10:30:21;;;;;;;3.97;3.00;;;;;;;27.32;50.42;94426.00;5056950;28;20071;-87
2023/06/09 10:32:55;;;;;;;3.00;2.78;;;;;;;28.08;51.15;94428.31;5041923;28;20043;-87
2023/06/09 10:35:28;;;;;;;2.78;2.58;;;;;;;27.50;48.89;94420.69;5057702;28;20426;-82
2023/06/09 10:37:54;;;;;;;3.13;2.92;;;;;;;27.46;49.28;94414.34;5057645;28;20317;-85
2023/06/09 10:40:24;;;;;;;3.20;2.40;;;;;;;27.10;49.65;94419.34;5058223;28;20032;-79
2023/06/09 10:43:08;;;;;;;3.63;2.50;;;;;;;27.55;50.72;94422.50;5040452;28;20032;-85
2023/06/09 10:46:00;;;;;;;5.03;2.50;;;;;;;28.13;52.81;94409.56;5059385;28;20037;-84
2023/06/09 10:48:48;;;;;;;2.80;2.60;;;;;;;28.54;50.53;94407.75;5055458;28;20458;-85
2023/06/09 10:51:26;;;;;;;4.18;2.72;;;;;;;28.59;49.44;94415.63;5056528;28;20075;-84
2023/06/09 10:54:07;;;;;;;2.60;2.27;;;;;;;27.95;45.19;94408.53;5059854;28;20952;-89
2023/06/09 10:56:36;;;;;;;2.90;2.40;;;;;;;28.14;47.82;94395.97;5056460;28;20354;-84
2023/06/09 10:59:03;;;;;;;2.70;2.35;;;;;;;28.24;47.37;94394.97;5041790;28;20071;-86
2023/06/09 11:01:29;;;;;;;2.47;2.28;;;;;;;28.54;46.51;94388.28;5057760;28;20470;-83
2023/06/09 11:03:54;;;;;;;2.40;2.20;;;;;;;28.67;47.63;94393.63;5058180;28;20032;-83
2023/06/09 11:06:20;;;;;;;4.00;2.55;;;;;;;28.77;45.97;94390.75;5045717;28;20493;-83
2023/06/09 11:09:12;;;;;;;4.38;2.40;;;;;;;28.67;47.25;94392.88;5062366;28;20573;-85
2023/06/09 11:11:52;;;;;;;3.63;2.42;;;;;;;27.74;47.65;94381.41;5059211;28;20094;-79
2023/06/09 11:14:46;;;;;;;2.70;2.50;;;;;;;28.52;48.26;94380.59;5044335;28;20120;-86
2023/06/09 11:17:15;;;;;;;4.63;2.22;;;;;;;28.67;48.86;94374.97;5060683;28;20045;-86
2023/06/09 11:19:40;;;;;;;2.58;2.35;;;;;;;28.48;49.59;94379.59;5062106;28;20043;-83
2023/06/09 11:22:08;;;;;;;2.85;2.33;;;;;;;28.54;46.58;94382.97;5059883;28;20025;-84
2023/06/09 11:24:49;;;;;;;3.03;2.55;;;;;;;27.29;46.58;94378.69;5061923;28;20024;-82
2023/06/09 11:27:18;;;;;;;2.25;2.05;;;;;;;28.26;48.78;94374.94;5044112;28;20029;-87
2023/06/09 11:29:44;;;;;;;2.58;2.30;;;;;;;28.58;47.91;94374.06;5062549;28;20036;-86
2023/06/09 11:32:10;;;;;;;4.03;2.50;;;;;;;28.63;47.70;94375.84;5062119;28;20025;-85
2023/06/09 11:34:50;;;;;;;2.70;2.50;;;;;;;28.96;50.84;94385.31;5059958;28;20642;-85
2023/06/09 11:37:17;;;;;;;3.92;2.40;;;;;;;29.01;47.26;94366.53;5061486;28;20029;-85
2023/06/09 11:39:43;;;;;;;2.38;2.17;;;;;;;28.53;48.54;94374.16;5060871;28;20037;-88
2023/06/09 11:42:08;;;;;;;4.63;2.72;;;;;;;28.01;50.10;94367.38;5062077;28;20630;-82
2023/06/09 11:44:37;;;;;;;3.80;2.25;;;;;;;27.90;51.57;94370.53;5044119;28;20031;-89